Time;durP1;ratioP1;P1;durP2;ratioP2;P2;SDS_P1;SDS_P2;PMS_P1;PMS_P2;Temp;Humidity;BMP_temperature;BMP_pressure;BME280_temperature;BME280_humidity;BME280_pressure;Samples;Min_cycle;Max_cycle;Signal;HPM_P1;HPM_P2
2022/08/21 00:01:28;;;;;;;;;3.75;3.75;;;;;22.12;48.00;101490.09;5061494;28;46001;-64
2022/08/21 00:03:55;;;;;;;;;4.00;3.25;;;;;22.09;48.19;101481.47;5061562;28;46551;-64
2022/08/21 00:06:21;;;;;;;;;4.00;3.00;;;;;22.06;48.16;101479.06;5061685;28;45332;-64
2022/08/21 00:08:47;;;;;;;;;8.75;7.00;;;;;22.00;48.44;101477.81;5061776;28;45331;-64
2022/08/21 00:11:15;;;;;;;;;4.50;4.00;;;;;21.94;48.58;101481.06;5061534;28;45601;-64
2022/08/21 00:13:41;;;;;;;;;4.75;3.00;;;;;21.93;48.63;101485.59;5061628;28;45225;-65
2022/08/21 00:16:07;;;;;;;;;5.50;3.00;;;;;21.91;48.84;101476.00;5061435;28;45331;-64
2022/08/21 00:18:32;;;;;;;;;3.75;3.00;;;;;21.87;48.97;101472.75;5061626;28;45288;-64
2022/08/21 00:20:58;;;;;;;;;6.75;4.50;;;;;21.84;48.98;101473.06;5061246;28;46226;-64
2022/08/21 00:23:24;;;;;;;;;3.00;3.00;;;;;21.83;49.02;101471.38;5061381;28;45226;-64
2022/08/21 00:25:50;;;;;;;;;5.75;3.75;;;;;21.82;49.22;101469.69;5044685;28;45370;-64
2022/08/21 00:28:15;;;;;;;;;5.50;5.25;;;;;21.78;49.33;101476.31;5041369;28;45234;-64
2022/08/21 00:30:42;;;;;;;;;3.75;3.00;;;;;21.73;49.49;101474.09;5040954;28;45417;-64
2022/08/21 00:33:09;;;;;;;;;5.00;5.00;;;;;21.73;49.70;101465.19;5040979;28;45344;-64
2022/08/21 00:35:39;;;;;;;;;3.75;3.25;;;;;21.76;49.58;101466.75;5040108;28;45336;-64
2022/08/21 00:38:07;;;;;;;;;3.25;3.00;;;;;21.71;49.91;101472.53;5041214;28;45285;-64
2022/08/21 00:40:49;;;;;;;;;3.75;3.75;;;;;21.70;49.71;101471.69;5040830;28;45386;-64
2022/08/21 00:43:18;;;;;;;;;5.25;4.00;;;;;21.69;49.79;101470.00;5040980;28;45277;-64
2022/08/21 00:45:44;;;;;;;;;4.00;3.00;;;;;21.68;49.77;101471.00;5041070;28;45464;-64
2022/08/21 00:48:10;;;;;;;;;4.50;3.50;;;;;21.69;49.90;101466.47;5040922;28;45451;-64
2022/08/21 00:50:39;;;;;;;;;5.75;5.00;;;;;21.68;49.94;101468.31;5060930;28;46100;-64
2022/08/21 00:53:07;;;;;;;;;7.00;3.25;;;;;21.68;49.87;101467.47;5061000;28;45373;-64
2022/08/21 00:55:36;;;;;;;;;6.25;4.00;;;;;21.66;49.85;101448.00;5061143;28;45440;-64
2022/08/21 00:58:03;;;;;;;;;4.00;2.25;;;;;21.67;50.09;101452.38;5061067;28;45231;-64
2022/08/21 01:00:33;;;;;;;;;4.75;3.75;;;;;21.67;50.04;101452.38;5059769;28;46066;-64
2022/08/21 01:03:00;;;;;;;;;3.75;3.00;;;;;21.67;50.26;101449.69;5060537;28;45380;-64
2022/08/21 01:05:27;;;;;;;;;4.00;2.75;;;;;21.66;50.16;101440.81;5060925;28;45283;-64
2022/08/21 01:07:56;;;;;;;;;11.00;6.50;;;;;21.64;50.30;101452.63;5060790;28;45480;-64
2022/08/21 01:10:22;;;;;;;;;9.00;5.75;;;;;21.57;50.26;101456.91;5060736;28;46369;-64
2022/08/21 01:12:50;;;;;;;;;6.50;4.75;;;;;21.51;50.27;101455.66;5060636;28;45359;-64
2022/08/21 01:15:18;;;;;;;;;5.00;4.00;;;;;21.46;50.42;101450.72;5059500;28;45381;-64
2022/08/21 01:17:44;;;;;;;;;5.50;3.50;;;;;21.45;50.73;101461.59;5060604;28;45474;-64
2022/08/21 01:20:10;;;;;;;;;7.50;5.00;;;;;21.41;50.66;101470.91;5060853;28;45995;-64
2022/08/21 01:22:36;;;;;;;;;5.50;4.00;;;;;21.41;50.71;101462.88;5060538;28;45255;-64
2022/08/21 01:25:05;;;;;;;;;8.25;5.50;;;;;21.41;50.94;101474.44;5050050;28;45418;-64
2022/08/21 01:27:30;;;;;;;;;0.75;0.75;;;;;21.39;50.93;101468.34;5040553;28;45391;-64
2022/08/21 01:30:12;;;;;;;;;6.50;3.00;;;;;21.40;50.82;101469.19;5040387;28;45802;-64
2022/08/21 01:32:39;;;;;;;;;4.25;3.25;;;;;21.41;51.10;101470.91;5040346;28;45337;-64
2022/08/21 01:35:05;;;;;;;;;5.25;1.75;;;;;21.41;50.96;101470.91;5040599;28;45232;-64
2022/08/21 01:37:31;;;;;;;;;2.75;1.25;;;;;21.41;51.24;101477.13;5040567;28;45545;-64
2022/08/21 01:39:57;;;;;;;;;9.75;5.00;;;;;21.37;51.18;101473.03;5052215;28;45422;-65
2022/08/21 01:42:22;;;;;;;;;11.25;9.00;;;;;21.33;51.34;101474.31;5060385;28;45312;-64
2022/08/21 01:44:48;;;;;;;;;5.00;5.00;;;;;21.31;51.38;101472.75;5060589;28;45408;-64
2022/08/21 01:47:14;;;;;;;;;4.50;4.00;;;;;21.30;51.45;101469.22;5060225;28;45468;-64
2022/08/21 01:49:41;;;;;;;;;5.75;4.25;;;;;21.30;51.57;101466.53;5058855;28;47189;-64
2022/08/21 01:52:07;;;;;;;;;4.25;4.00;;;;;21.32;51.44;101469.06;5060260;28;45327;-64
2022/08/21 01:54:33;;;;;;;;;7.00;4.00;;;;;21.33;51.32;101468.06;5060376;28;45320;-64
2022/08/21 01:57:00;;;;;;;;;5.00;3.25;;;;;21.32;51.27;101471.75;5060294;28;45411;-64
2022/08/21 01:59:26;;;;;;;;;5.25;4.50;;;;;21.30;51.36;101461.19;5060186;28;45918;-64
2022/08/21 02:01:53;;;;;;;;;5.00;3.75;;;;;21.26;51.46;101459.75;5059879;28;45243;-64
2022/08/21 02:04:19;;;;;;;;;5.75;3.00;;;;;21.18;51.71;101463.16;5060192;28;45339;-64
2022/08/21 02:06:45;;;;;;;;;3.75;3.75;;;;;21.17;51.60;101458.78;5060071;28;45680;-65
2022/08/21 02:09:12;;;;;;;;;4.25;2.75;;;;;21.17;51.95;101457.91;5060123;28;46028;-64
2022/08/21 02:11:40;;;;;;;;;5.00;3.00;;;;;21.16;51.91;101453.53;5061572;28;45315;-64
2022/08/21 02:14:11;;;;;;;;;4.75;4.75;;;;;21.12;51.86;101458.34;5063518;28;45492;-64
2022/08/21 02:16:37;;;;;;;;;8.50;2.50;;;;;21.06;52.00;101450.88;5063404;28;45419;-65
2022/08/21 02:19:03;;;;;;;;;6.00;5.00;;;;;21.01;52.04;101447.75;5063140;28;45426;-64
2022/08/21 02:21:28;;;;;;;;;4.50;3.75;;;;;20.98;52.12;101445.38;5063526;28;45307;-64
2022/08/21 02:23:54;;;;;;;;;7.00;5.00;;;;;20.96;52.20;101444.69;5063391;28;45302;-64
2022/08/21 02:26:19;;;;;;;;;7.75;2.50;;;;;21.00;52.48;101447.91;5043421;28;45375;-64
2022/08/21 02:28:45;;;;;;;;;3.75;3.75;;;;;20.97;52.41;101446.38;5043276;28;45240;-64
2022/08/21 02:31:11;;;;;;;;;5.50;3.75;;;;;20.95;52.25;101447.50;5043023;28;45321;-64
2022/08/21 02:33:37;;;;;;;;;8.75;2.75;;;;;20.88;52.78;101450.75;5043082;28;45300;-64
2022/08/21 02:36:04;;;;;;;;;4.50;3.50;;;;;20.83;52.75;101447.63;5043224;28;45621;-64
2022/08/21 02:38:34;;;;;;;;;3.25;3.00;;;;;20.81;52.68;101446.91;5042991;28;45373;-64
2022/08/21 02:41:00;;;;;;;;;6.00;3.75;;;;;20.81;52.92;101446.91;5049827;28;45186;-64
2022/08/21 02:43:27;;;;;;;;;6.00;2.75;;;;;20.85;52.94;101445.69;5063092;28;45227;-64
2022/08/21 02:45:56;;;;;;;;;5.00;3.50;;;;;20.84;52.66;101446.63;5063127;28;45485;-64
2022/08/21 02:48:25;;;;;;;;;3.00;3.00;;;;;20.79;52.89;101454.25;5062361;28;45272;-65
2022/08/21 02:51:04;;;;;;;;;3.75;2.50;;;;;20.76;53.19;101456.34;5062990;28;45283;-64
2022/08/21 02:53:30;;;;;;;;;6.00;4.00;;;;;20.75;52.86;101455.50;5062959;28;45299;-64
2022/08/21 02:55:58;;;;;;;;;6.25;3.75;;;;;20.76;52.98;101454.53;5062880;28;45430;-64
2022/08/21 02:58:28;;;;;;;;;6.00;4.75;;;;;20.72;53.16;101447.75;5062706;28;46170;-64
2022/08/21 03:00:54;;;;;;;;;8.75;5.50;;;;;20.71;53.21;101454.13;5062606;28;45289;-64
2022/08/21 03:03:20;;;;;;;;;6.75;4.00;;;;;20.73;53.43;101452.13;5061392;28;45371;-64
2022/08/21 03:05:47;;;;;;;;;7.50;6.00;;;;;20.75;53.23;101446.63;5062892;28;45626;-64
2022/08/21 03:08:14;;;;;;;;;5.25;5.00;;;;;20.77;53.05;101453.53;5062553;28;45391;-65
2022/08/21 03:10:44;;;;;;;;;5.00;3.50;;;;;20.78;53.20;101452.56;5062578;28;45260;-65
2022/08/21 03:13:10;;;;;;;;;8.75;5.25;;;;;20.79;53.25;101454.25;5062558;28;45351;-64
2022/08/21 03:15:37;;;;;;;;;7.25;6.00;;;;;20.79;53.26;101451.59;5062441;28;45500;-64
2022/08/21 03:18:04;;;;;;;;;8.75;6.00;;;;;20.77;53.23;101450.84;5062131;28;46089;-64
2022/08/21 03:20:31;;;;;;;;;8.75;6.75;;;;;20.77;53.19;101450.00;5062372;28;45292;-64
2022/08/21 03:22:58;;;;;;;;;10.75;8.25;;;;;20.76;53.40;101448.31;5061420;28;45353;-63
2022/08/21 03:25:25;;;;;;;;;11.00;6.00;;;;;20.76;53.38;101443.81;5048969;28;45446;-64
2022/08/21 03:27:51;;;;;;;;;10.75;8.25;;;;;20.76;53.71;101441.13;5048940;28;45250;-64
2022/08/21 03:30:19;;;;;;;;;7.75;7.75;;;;;20.74;53.27;101437.75;5062253;28;45307;-64
2022/08/21 03:32:46;;;;;;;;;10.00;7.50;;;;;20.75;53.38;101430.56;5061013;28;45275;-64
2022/08/21 03:35:12;;;;;;;;;6.00;4.75;;;;;20.74;53.45;101435.06;5062481;28;45277;-64
2022/08/21 03:37:38;;;;;;;;;9.25;8.00;;;;;20.73;53.62;101430.72;5062253;28;45968;-64
2022/08/21 03:40:08;;;;;;;;;11.75;8.75;;;;;20.72;53.31;101414.78;5062151;28;45212;-64
2022/08/21 03:42:33;;;;;;;;;13.25;6.75;;;;;20.72;53.50;101410.28;5062316;28;45326;-64
2022/08/21 03:44:59;;;;;;;;;8.75;6.00;;;;;20.70;53.55;101404.22;5062072;28;45528;-64
2022/08/21 03:47:25;;;;;;;;;7.50;6.00;;;;;20.70;53.28;101406.06;5061989;28;46309;-64
2022/08/21 03:49:50;;;;;;;;;9.25;8.00;;;;;20.71;53.53;101405.91;5061916;28;45232;-64
2022/08/21 03:52:16;;;;;;;;;10.75;7.50;;;;;20.71;53.74;101405.91;5062360;28;45366;-64
2022/08/21 03:54:42;;;;;;;;;5.50;5.50;;;;;20.71;53.86;101405.06;5062106;28;45456;-64
2022/08/21 03:57:09;;;;;;;;;7.00;5.75;;;;;20.66;53.61;101416.19;5062022;28;45998;-63
2022/08/21 03:59:35;;;;;;;;;6.50;6.00;;;;;20.63;53.88;101403.09;5061833;28;45357;-64
2022/08/21 04:02:04;;;;;;;;;8.75;6.75;;;;;20.62;54.11;101414.78;5061657;28;45496;-64
2022/08/21 04:04:29;;;;;;;;;5.75;4.50;;;;;20.62;53.86;101412.97;5062032;28;45274;-64
2022/08/21 04:06:56;;;;;;;;;7.25;6.00;;;;;20.62;53.95;101404.09;5061719;28;45398;-64
2022/08/21 04:09:22;;;;;;;;;4.75;3.00;;;;;20.59;54.01;101396.31;5061955;28;45215;-64
2022/08/21 04:11:48;;;;;;;;;6.00;5.50;;;;;20.56;53.97;101397.44;5061806;28;45240;-64
2022/08/21 04:14:15;;;;;;;;;7.00;4.25;;;;;20.54;54.21;101399.44;5061801;28;45425;-64
2022/08/21 04:16:41;;;;;;;;;8.25;5.75;;;;;20.53;54.06;101404.91;5061287;28;45416;-64
2022/08/21 04:19:08;;;;;;;;;8.75;4.75;;;;;20.48;54.04;101404.50;5061449;28;45387;-64
2022/08/21 04:21:36;;;;;;;;;5.50;5.25;;;;;20.45;54.34;101407.41;5061680;28;45439;-64
2022/08/21 04:24:01;;;;;;;;;5.00;4.50;;;;;20.42;54.32;101410.34;5058962;28;45263;-64
2022/08/21 04:26:28;;;;;;;;;8.25;6.75;;;;;20.42;54.67;101416.56;5041166;28;46284;-64
2022/08/21 04:28:55;;;;;;;;;9.25;5.50;;;;;20.42;54.67;101421.06;5041273;28;45304;-64
2022/08/21 04:31:20;;;;;;;;;10.00;6.25;;;;;20.43;54.54;101426.25;5041248;28;45363;-65
2022/08/21 04:33:46;;;;;;;;;7.50;5.75;;;;;20.43;54.39;101422.75;5040874;28;45284;-64
2022/08/21 04:36:11;;;;;;;;;11.00;6.50;;;;;20.40;54.68;101434.59;5041205;28;45297;-64
2022/08/21 04:38:37;;;;;;;;;7.50;6.00;;;;;20.38;54.60;101433.00;5041133;28;45327;-64
2022/08/21 04:41:04;;;;;;;;;7.75;6.00;;;;;20.35;54.63;101431.47;5041378;28;45327;-64
2022/08/21 04:43:30;;;;;;;;;7.25;6.00;;;;;20.36;54.75;101430.47;5041186;28;45443;-64
2022/08/21 04:45:55;;;;;;;;;7.75;6.00;;;;;20.31;54.39;101428.22;5048767;28;45627;-64
2022/08/21 04:48:23;;;;;;;;;7.25;6.00;;;;;20.31;54.54;101432.72;5060868;28;45308;-64
2022/08/21 04:51:07;;;;;;;;;7.00;5.50;;;;;20.30;54.84;101433.69;5061324;27;45162;-64
2022/08/21 04:53:35;;;;;;;;;5.50;4.50;;;;;20.28;54.99;101438.34;5061252;28;45253;-64
2022/08/21 04:56:26;;;;;;;;;9.25;7.00;;;;;20.28;54.57;101441.00;5061013;28;45417;-64
2022/08/21 04:58:58;;;;;;;;;11.50;7.25;;;;;20.26;55.13;101437.63;5056075;28;45260;-64
2022/08/21 05:01:27;;;;;;;;;9.50;5.00;;;;;20.27;54.91;101442.84;5060803;28;45517;-64
2022/08/21 05:03:56;;;;;;;;;6.75;6.00;;;;;20.27;54.74;101445.53;5060809;28;45303;-64
2022/08/21 05:06:23;;;;;;;;;6.25;5.50;;;;;20.29;54.89;101448.91;5059492;28;46431;-64
2022/08/21 05:08:52;;;;;;;;;8.50;6.50;;;;;20.26;54.68;101438.47;5060983;28;45390;-64
2022/08/21 05:11:19;;;;;;;;;7.50;7.50;;;;;20.29;55.31;101445.38;5060976;28;45267;-64
2022/08/21 05:13:45;;;;;;;;;6.25;5.25;;;;;20.26;55.20;101435.81;5056334;28;45494;-64
2022/08/21 05:16:11;;;;;;;;;10.25;8.25;;;;;20.27;54.79;101437.50;5058109;28;45303;-64
2022/08/21 05:18:36;;;;;;;;;9.75;7.00;;;;;20.28;54.97;101431.16;5060562;28;45319;-64
2022/08/21 05:21:02;;;;;;;;;11.25;7.00;;;;;20.26;55.22;101430.44;5060797;28;45378;-64
2022/08/21 05:23:28;;;;;;;;;8.25;7.50;;;;;20.24;55.49;101426.22;5060822;28;45278;-64
2022/08/21 05:25:54;;;;;;;;;11.75;8.00;;;;;20.23;54.90;101429.91;5043261;28;45715;-64
2022/08/21 05:28:20;;;;;;;;;6.75;4.75;;;;;20.22;55.11;101433.53;5040562;28;45373;-64
2022/08/21 05:30:46;;;;;;;;;8.75;8.00;;;;;20.22;55.21;101438.88;5056274;28;45236;-64
2022/08/21 05:33:11;;;;;;;;;9.75;8.75;;;;;20.22;55.09;101445.09;5060578;28;45473;-64
2022/08/21 05:35:37;;;;;;;;;7.00;6.00;;;;;20.21;55.64;101446.06;5060429;28;45807;-64
2022/08/21 05:38:04;;;;;;;;;11.75;7.50;;;;;20.20;55.17;101439.03;5060590;28;45232;-64
2022/08/21 05:40:30;;;;;;;;;11.75;9.25;;;;;20.16;55.51;101437.63;5060594;28;45390;-64
2022/08/21 05:42:56;;;;;;;;;9.50;7.25;;;;;20.17;55.44;101430.44;5060727;28;45459;-64
2022/08/21 05:45:29;;;;;;;;;10.25;9.25;;;;;20.16;55.32;101440.28;5060236;28;45403;-64
2022/08/21 05:47:54;;;;;;;;;15.50;13.00;;;;;20.18;55.53;101432.13;5063730;28;45344;-64
2022/08/21 05:50:20;;;;;;;;;1.00;0.75;;;;;20.20;55.74;101440.84;5064022;28;45331;-64
2022/08/21 05:52:46;;;;;;;;;17.25;11.50;;;;;20.22;55.33;101444.22;5064028;28;45435;-64
2022/08/21 05:55:12;;;;;;;;;18.00;13.75;;;;;20.21;55.22;101442.53;5063769;28;46237;-64
2022/08/21 05:57:40;;;;;;;;;17.00;14.50;;;;;20.20;55.63;101443.53;5063790;28;45261;-64
2022/08/21 06:00:10;;;;;;;;;0.50;0.00;;;;;20.21;55.40;101442.53;5063691;28;45306;-65
2022/08/21 06:02:35;;;;;;;;;16.00;15.00;;;;;20.23;55.63;101444.13;5063654;28;45521;-64
2022/08/21 06:05:01;;;;;;;;;17.00;13.75;;;;;20.31;55.67;101451.47;5063403;28;45294;-64
2022/08/21 06:07:26;;;;;;;;;19.00;12.25;;;;;20.40;55.48;101447.13;5063644;28;45370;-64
2022/08/21 06:09:52;;;;;;;;;15.50;15.00;;;;;20.46;55.58;101446.56;5063548;28;45433;-65
2022/08/21 06:12:18;;;;;;;;;19.75;16.75;;;;;20.55;55.48;101449.28;5063657;28;45310;-64
2022/08/21 06:14:43;;;;;;;;;19.75;16.50;;;;;20.63;55.50;101452.13;5063231;28;45315;-65
2022/08/21 06:17:11;;;;;;;;;18.00;17.00;;;;;20.71;55.22;101453.28;5063124;28;45330;-64
2022/08/21 06:19:37;;;;;;;;;21.50;17.00;;;;;20.75;55.44;101450.16;5063495;28;45473;-65
2022/08/21 06:22:04;;;;;;;;;17.50;17.00;;;;;20.78;55.18;101452.56;5063496;28;45235;-65
2022/08/21 06:24:30;;;;;;;;;23.00;18.75;;;;;20.85;55.26;101448.34;5056695;28;45396;-64
2022/08/21 06:26:56;;;;;;;;;22.50;17.00;;;;;20.95;54.69;101453.69;5042895;28;45396;-64
2022/08/21 06:29:23;;;;;;;;;17.75;15.25;;;;;21.02;54.94;101452.16;5043146;28;45423;-64
2022/08/21 06:31:50;;;;;;;;;20.50;15.00;;;;;21.11;54.77;101439.75;5042799;28;45323;-64
2022/08/21 06:34:16;;;;;;;;;20.50;13.25;;;;;21.21;54.58;101451.28;5042748;28;45321;-64
2022/08/21 06:36:42;;;;;;;;;18.75;13.25;;;;;21.32;54.55;101444.94;5043105;28;45161;-64
2022/08/21 06:39:07;;;;;;;;;20.25;14.50;;;;;21.42;54.61;101443.97;5043138;28;45317;-64
2022/08/21 06:41:34;;;;;;;;;16.00;14.00;;;;;21.53;54.34;101442.09;5043123;28;45486;-65
2022/08/21 06:44:00;;;;;;;;;18.00;13.25;;;;;21.59;54.21;101434.31;5042878;28;46092;-65
2022/08/21 06:46:28;;;;;;;;;21.00;13.50;;;;;21.68;54.04;101430.75;5042705;28;45347;-64
2022/08/21 06:48:55;;;;;;;;;15.75;14.25;;;;;21.77;53.83;101430.88;5049233;28;45311;-64
2022/08/21 06:51:21;;;;;;;;;16.50;13.75;;;;;21.83;53.59;101427.63;5063084;28;45558;-64
2022/08/21 06:53:46;;;;;;;;;17.75;12.75;;;;;21.88;53.35;101425.31;5062835;28;45978;-64
2022/08/21 06:56:12;;;;;;;;;16.25;10.75;;;;;21.94;53.12;101425.56;5062955;28;45165;-64
2022/08/21 06:58:38;;;;;;;;;17.75;13.00;;;;;22.04;53.27;101425.56;5062946;28;45287;-64
2022/08/21 07:01:04;;;;;;;;;13.25;10.50;;;;;22.10;53.12;101421.44;5062797;28;45248;-64
2022/08/21 07:03:33;;;;;;;;;15.75;11.25;;;;;22.16;53.10;101427.06;5062535;28;46038;-64
2022/08/21 07:05:59;;;;;;;;;14.00;12.50;;;;;22.18;52.74;101421.53;5062801;28;45313;-64
2022/08/21 07:08:26;;;;;;;;;9.00;9.00;;;;;22.21;52.94;101418.56;5062879;28;45159;-64
2022/08/21 07:10:55;;;;;;;;;14.50;10.75;;;;;22.22;52.72;101421.09;5062814;28;45141;-63
2022/08/21 07:13:20;;;;;;;;;9.25;9.25;;;;;22.20;52.36;101425.78;5062614;28;46101;-63
2022/08/21 07:15:46;;;;;;;;;11.50;10.25;;;;;22.20;52.73;101420.41;5062239;28;45383;-64
2022/08/21 07:18:13;;;;;;;;;12.50;8.25;;;;;22.18;52.47;101426.91;5062646;28;45327;-64
2022/08/21 07:20:40;;;;;;;;;10.75;8.25;;;;;22.15;52.43;101429.91;5062699;28;45495;-64
2022/08/21 07:23:11;;;;;;;;;14.25;10.50;;;;;22.11;52.42;101426.66;5062289;28;45320;-63
2022/08/21 07:25:37;;;;;;;;;14.00;9.00;;;;;22.06;52.32;101423.56;5072660;28;45394;-63
2022/08/21 07:28:03;;;;;;;;;15.50;8.75;;;;;22.03;52.38;101430.03;5062373;28;45418;-63
2022/08/21 07:30:28;;;;;;;;;10.25;8.25;;;;;22.04;52.58;101417.50;5062238;28;45420;-64
2022/08/21 07:32:54;;;;;;;;;8.00;8.00;;;;;22.04;52.31;101417.50;5062310;28;45534;-63
2022/08/21 07:35:21;;;;;;;;;11.00;9.00;;;;;22.10;52.49;101419.59;5062170;28;45245;-63
2022/08/21 07:37:47;;;;;;;;;11.25;8.50;;;;;22.15;52.60;101419.16;5062200;28;45304;-63
2022/08/21 07:40:13;;;;;;;;;10.75;9.00;;;;;22.16;52.14;101419.00;5062011;28;45250;-64
2022/08/21 07:42:43;;;;;;;;;13.00;10.00;;;;;22.23;52.41;101408.53;5062180;28;45284;-63
2022/08/21 07:45:09;;;;;;;;;8.50;7.50;;;;;22.31;52.06;101413.16;5061979;28;45387;-63
2022/08/21 07:47:35;;;;;;;;;10.00;8.25;;;;;22.37;52.24;101416.06;5061777;28;45280;-64
2022/08/21 07:50:01;;;;;;;;;11.25;8.25;;;;;22.45;51.80;101407.25;5061865;28;45307;-63
2022/08/21 07:52:26;;;;;;;;;7.25;6.50;;;;;22.52;52.08;101413.72;5062107;28;45444;-63
2022/08/21 07:54:52;;;;;;;;;11.75;8.00;;;;;22.55;51.97;101413.41;5061864;28;45236;-63
2022/08/21 07:57:18;;;;;;;;;8.50;6.00;;;;;22.61;51.74;101410.13;5062095;28;45284;-63
2022/08/21 07:59:43;;;;;;;;;5.50;5.50;;;;;22.68;51.93;101411.19;5061742;28;45259;-63
2022/08/21 08:02:09;;;;;;;;;6.75;5.75;;;;;22.75;51.42;101406.03;5061329;28;46170;-63
2022/08/21 08:04:34;;;;;;;;;8.50;5.50;;;;;22.81;51.50;101411.63;5059119;28;45488;-63
2022/08/21 08:07:00;;;;;;;;;10.75;6.00;;;;;22.84;51.38;101411.34;5061846;28;45245;-63
2022/08/21 08:09:25;;;;;;;;;6.25;4.75;;;;;22.85;51.12;101401.47;5061384;28;45461;-63
2022/08/21 08:11:51;;;;;;;;;5.00;5.00;;;;;22.90;51.12;101401.84;5061631;28;45303;-64
2022/08/21 08:14:16;;;;;;;;;6.25;5.25;;;;;22.98;50.67;101398.38;5061589;28;45326;-64
2022/08/21 08:16:42;;;;;;;;;6.50;5.75;;;;;23.03;50.87;101394.22;5061507;28;45263;-64
2022/08/21 08:19:08;;;;;;;;;7.75;6.25;;;;;23.10;50.57;101402.50;5061717;28;45497;-65
2022/08/21 08:21:38;;;;;;;;;6.75;5.00;;;;;23.14;50.36;101398.50;5061523;28;46473;-64
2022/08/21 08:24:03;;;;;;;;;4.25;2.75;;;;;23.14;50.05;101398.50;5058604;28;45283;-64
2022/08/21 08:26:29;;;;;;;;;6.00;6.00;;;;;23.13;50.44;101403.03;5049322;28;45284;-64
2022/08/21 08:28:54;;;;;;;;;10.50;5.75;;;;;23.15;50.30;101385.94;5061499;28;45518;-64
2022/08/21 08:31:20;;;;;;;;;9.00;6.75;;;;;23.17;50.24;101394.66;5061423;28;45386;-64
2022/08/21 08:33:45;;;;;;;;;8.00;6.00;;;;;23.21;50.06;101393.34;5061042;28;45500;-64
2022/08/21 08:36:17;;;;;;;;;8.00;5.75;;;;;23.25;49.69;101392.88;5060204;28;45350;-64
2022/08/21 08:38:42;;;;;;;;;7.00;5.00;;;;;23.31;49.79;101391.41;5061420;28;45563;-64
2022/08/21 08:41:18;;;;;;;;;6.25;4.00;;;;;23.41;49.28;101397.53;5061211;28;45334;-64
2022/08/21 08:43:51;;;;;;;;;7.25;5.75;;;;;23.47;49.75;101388.00;5061066;27;45389;-65
2022/08/21 08:46:33;;;;;;;;;6.00;3.50;;;;;23.50;49.62;101382.28;5061007;28;45224;-65
2022/08/21 08:49:07;;;;;;;;;4.25;4.25;;;;;23.51;49.48;101387.50;5061261;28;45248;-65
2022/08/21 08:51:41;;;;;;;;;7.50;5.25;;;;;23.56;48.88;101390.56;5061070;28;46235;-64
2022/08/21 08:54:17;;;;;;;;;6.00;5.50;;;;;23.60;49.30;101380.34;5056353;28;45328;-65
2022/08/21 08:56:44;;;;;;;;;7.25;5.00;;;;;23.68;49.18;101383.06;5058537;28;45319;-64
2022/08/21 08:59:20;;;;;;;;;5.75;4.25;;;;;23.79;49.00;101376.59;5061199;28;45434;-65
2022/08/21 09:01:46;;;;;;;;;3.25;3.25;;;;;23.90;48.63;101382.50;5060474;28;45497;-64
2022/08/21 09:04:15;;;;;;;;;4.75;4.00;;;;;23.93;48.51;101374.09;5060860;28;45367;-65
2022/08/21 09:06:55;;;;;;;;;5.00;5.00;;;;;23.98;48.71;101370.94;5060939;28;45398;-64
2022/08/21 09:09:44;;;;;;;;;5.50;4.25;;;;;24.00;48.51;101370.75;5060910;28;45510;-64
2022/08/21 09:12:34;;;;;;;;;8.75;6.25;;;;;24.01;47.75;101372.44;5055117;28;45629;-64
2022/08/21 09:15:28;;;;;;;;;5.00;5.00;;;;;24.07;48.23;101366.41;5060704;28;45252;-64
2022/08/21 09:18:21;;;;;;;;;5.75;4.25;;;;;24.11;47.78;101362.41;5060605;28;45303;-64
2022/08/21 09:21:15;;;;;;;;;6.00;5.00;;;;;24.14;47.91;101352.13;5061150;28;45260;-65
2022/08/21 09:24:05;;;;;;;;;9.25;4.00;;;;;24.19;47.68;101355.19;5064140;28;46328;-64
2022/08/21 09:26:41;;;;;;;;;7.00;4.00;;;;;24.27;47.97;101348.97;5053944;28;45426;-64
2022/08/21 09:29:10;;;;;;;;;7.50;6.00;;;;;24.34;47.80;101351.91;5064311;28;45521;-64
2022/08/21 09:31:39;;;;;;;;;6.25;4.75;;;;;24.39;47.14;101349.53;5063998;28;45260;-64
2022/08/21 09:34:13;;;;;;;;;5.00;3.00;;;;;24.45;47.66;101349.72;5063945;28;46237;-64
2022/08/21 09:36:45;;;;;;;;;4.50;4.00;;;;;24.49;47.57;101348.38;5064321;28;45534;-64
2022/08/21 09:39:21;;;;;;;;;4.00;3.25;;;;;24.51;47.30;101340.13;5064374;28;45269;-64
2022/08/21 09:41:59;;;;;;;;;7.00;3.75;;;;;24.53;47.28;101348.88;5064165;28;45334;-65
2022/08/21 09:44:30;;;;;;;;;5.75;4.75;;;;;24.62;46.77;101352.41;5064006;28;45907;-64
2022/08/21 09:46:56;;;;;;;;;6.00;4.00;;;;;24.67;46.72;101350.91;5063509;28;45402;-64
2022/08/21 09:49:35;;;;;;;;;5.50;3.75;;;;;24.76;46.47;101360.69;5064039;28;45470;-65
2022/08/21 09:52:03;;;;;;;;;8.75;4.00;;;;;24.89;46.21;101356.66;5064061;28;45232;-64
2022/08/21 09:54:34;;;;;;;;;4.00;3.25;;;;;24.94;46.11;101352.41;5063787;28;45454;-64
2022/08/21 09:59:55;;;;;;;;;5.50;3.75;;;;;25.08;45.51;101339.28;5063741;28;45382;-65
2022/08/21 10:02:39;;;;;;;;;5.00;3.75;;;;;25.19;45.93;101330.84;5063554;28;45354;-64
2022/08/21 10:05:16;;;;;;;;;6.50;4.75;;;;;25.28;45.21;101329.81;5058869;28;46308;-65
2022/08/21 10:07:41;;;;;;;;;4.00;4.00;;;;;25.32;45.07;101326.59;5057225;28;45299;-64
2022/08/21 10:10:31;;;;;;;;;5.00;4.50;;;;;25.42;45.20;101317.47;5063907;28;45419;-63
2022/08/21 10:13:00;;;;;;;;;4.75;3.75;;;;;25.46;44.80;101318.81;5057508;28;45560;-64
2022/08/21 10:15:50;;;;;;;;;3.75;3.75;;;;;25.55;44.67;101315.91;5062980;28;45540;-64
2022/08/21 10:18:42;;;;;;;;;4.75;4.00;;;;;25.59;44.46;101314.56;5063274;28;45294;-64
2022/08/21 10:21:20;;;;;;;;;5.00;4.00;;;;;25.55;44.52;101302.41;5058889;28;45312;-64
2022/08/21 10:24:24;;;;;;;;;4.00;4.00;;;;;25.49;44.07;101305.81;5056354;28;45313;-63
2022/08/21 10:27:09;;;;;;;;;3.00;2.00;;;;;25.35;43.95;101309.22;5052483;28;45238;-64
2022/08/21 10:30:08;;;;;;;;;5.00;4.00;;;;;25.29;44.00;101299.16;5062233;27;45318;-64
2022/08/21 10:32:51;;;;;;;;;3.00;1.75;;;;;25.24;43.67;101286.16;5061554;28;45403;-64
2022/08/21 10:35:56;;;;;;;;;3.75;3.00;;;;;25.24;43.14;101286.16;5062145;28;45282;-64
2022/08/21 10:38:49;;;;;;;;;3.25;2.00;;;;;25.28;43.57;101289.38;5062035;28;45301;-64
2022/08/21 10:41:27;;;;;;;;;3.75;3.25;;;;;25.30;42.79;101282.78;5062268;28;45436;-64
2022/08/21 10:44:23;;;;;;;;;2.00;2.00;;;;;25.33;42.32;101293.22;5061940;28;45394;-64
2022/08/21 10:47:01;;;;;;;;;2.25;2.25;;;;;25.39;42.39;101283.59;5061589;28;45479;-64
2022/08/21 10:49:45;;;;;;;;;2.75;2.75;;;;;25.48;42.84;101276.31;5061854;28;46057;-64
2022/08/21 10:52:57;;;;;;;;;4.00;2.25;;;;;25.57;42.71;101264.47;5061727;28;45218;-65
2022/08/21 10:55:31;;;;;;;;;4.50;2.00;;;;;25.67;42.68;101262.38;5051116;28;45539;-64
2022/08/21 10:58:09;;;;;;;;;5.50;2.25;;;;;25.75;42.23;101262.41;5061812;28;45268;-64
2022/08/21 11:00:53;;;;;;;;;4.25;3.00;;;;;25.86;42.10;101259.28;5061333;28;45410;-64
2022/08/21 11:03:21;;;;;;;;;4.25;2.00;;;;;25.92;42.11;101265.84;5061306;28;45369;-62
2022/08/21 11:05:52;;;;;;;;;3.00;1.50;;;;;25.96;41.96;101274.41;5061603;28;45228;-63
2022/08/21 11:08:21;;;;;;;;;4.75;3.00;;;;;25.99;42.17;101269.50;5061501;28;45357;-63
2022/08/21 11:10:55;;;;;;;;;4.50;2.00;;;;;26.01;41.77;101274.72;5061340;28;46268;-62
2022/08/21 11:13:30;;;;;;;;;5.00;2.75;;;;;26.03;41.63;101276.22;5061508;28;45440;-63
2022/08/21 11:16:33;;;;;;;;;4.75;2.75;;;;;26.05;41.22;101282.25;5058066;28;45181;-63
2022/08/21 11:19:22;;;;;;;;;3.00;3.00;;;;;26.04;41.33;101282.44;5061516;28;45442;-63
2022/08/21 11:22:21;;;;;;;;;2.75;2.75;;;;;26.05;41.56;101290.34;5061347;28;46421;-63
2022/08/21 11:25:08;;;;;;;;;5.75;2.00;;;;;26.09;41.40;101289.00;5004424;28;1397642;-63
2022/08/21 11:27:42;;;;;;;;;4.00;2.00;;;;;26.18;41.40;101289.78;5042285;28;45341;-63
2022/08/21 11:30:09;;;;;;;;;4.50;3.00;;;;;26.32;41.29;101285.47;5042085;28;45496;-63
2022/08/21 11:32:53;;;;;;;;;3.75;3.00;;;;;26.46;41.17;101287.38;5041573;28;45369;-63
2022/08/21 11:35:41;;;;;;;;;4.25;2.00;;;;;26.58;41.11;101287.81;5041903;28;45283;-63
2022/08/21 11:38:12;;;;;;;;;2.00;2.00;;;;;26.67;41.05;101284.00;5042202;28;45487;-63